sensor_id;sensor_type;location;lat;lon;timestamp;temperature;humidity
18694;DHT22;9477;51.414;10.362;2023-03-01T00:00:51;1.00;65.00
18694;DHT22;9477;51.414;10.362;2023-03-01T00:02:54;0.90;64.90
18694;DHT22;9477;51.414;10.362;2023-03-01T00:04:57;0.80;65.50
18694;DHT22;9477;51.414;10.362;2023-03-01T00:07:00;0.80;64.90
18694;DHT22;9477;51.414;10.362;2023-03-01T00:09:03;0.80;64.80
18694;DHT22;9477;51.414;10.362;2023-03-01T00:11:08;0.80;64.80
18694;DHT22;9477;51.414;10.362;2023-03-01T00:13:11;0.60;64.80
18694;DHT22;9477;51.414;10.362;2023-03-01T00:15:15;0.60;64.90
18694;DHT22;9477;51.414;10.362;2023-03-01T00:17:18;0.50;65.40
18694;DHT22;9477;51.414;10.362;2023-03-01T00:19:21;0.40;65.80
18694;DHT22;9477;51.414;10.362;2023-03-01T00:21:25;0.50;65.90
18694;DHT22;9477;51.414;10.362;2023-03-01T00:23:28;0.40;65.70
18694;DHT22;9477;51.414;10.362;2023-03-01T00:25:31;0.50;65.50
18694;DHT22;9477;51.414;10.362;2023-03-01T00:27:34;0.50;65.30
18694;DHT22;9477;51.414;10.362;2023-03-01T00:29:37;0.50;65.20
18694;DHT22;9477;51.414;10.362;2023-03-01T00:31:41;0.50;65.10
18694;DHT22;9477;51.414;10.362;2023-03-01T00:33:45;0.50;65.10
18694;DHT22;9477;51.414;10.362;2023-03-01T00:35:48;0.50;65.00
18694;DHT22;9477;51.414;10.362;2023-03-01T00:37:51;0.50;64.80
18694;DHT22;9477;51.414;10.362;2023-03-01T00:39:59;0.50;64.80
18694;DHT22;9477;51.414;10.362;2023-03-01T00:42:02;0.50;64.60
18694;DHT22;9477;51.414;10.362;2023-03-01T00:44:05;0.50;64.60
18694;DHT22;9477;51.414;10.362;2023-03-01T00:46:10;0.30;65.00
18694;DHT22;9477;51.414;10.362;2023-03-01T00:48:15;0.10;65.90
18694;DHT22;9477;51.414;10.362;2023-03-01T00:50:19;0.20;65.90
18694;DHT22;9477;51.414;10.362;2023-03-01T00:52:22;0.10;65.90
18694;DHT22;9477;51.414;10.362;2023-03-01T00:54:25;0.10;65.80
18694;DHT22;9477;51.414;10.362;2023-03-01T00:56:30;0.00;66.10
18694;DHT22;9477;51.414;10.362;2023-03-01T00:58:35;0.10;66.10
18694;DHT22;9477;51.414;10.362;2023-03-01T01:00:38;0.20;66.00
18694;DHT22;9477;51.414;10.362;2023-03-01T01:02:41;0.20;65.70
18694;DHT22;9477;51.414;10.362;2023-03-01T01:04:45;0.20;65.50
18694;DHT22;9477;51.414;10.362;2023-03-01T01:06:48;0.10;65.30
18694;DHT22;9477;51.414;10.362;2023-03-01T01:08:52;0.00;65.50
18694;DHT22;9477;51.414;10.362;2023-03-01T01:10:55;0.00;65.80
18694;DHT22;9477;51.414;10.362;2023-03-01T01:12:58;0.00;66.00
18694;DHT22;9477;51.414;10.362;2023-03-01T01:15:01;-0.10;66.50
18694;DHT22;9477;51.414;10.362;2023-03-01T01:17:05;-0.10;66.70
18694;DHT22;9477;51.414;10.362;2023-03-01T01:19:09;-0.10;66.70
18694;DHT22;9477;51.414;10.362;2023-03-01T01:21:15;0.00;66.70
18694;DHT22;9477;51.414;10.362;2023-03-01T01:23:18;-0.10;66.90
18694;DHT22;9477;51.414;10.362;2023-03-01T01:25:21;-0.10;67.00
18694;DHT22;9477;51.414;10.362;2023-03-01T01:27:26;-0.10;67.10
18694;DHT22;9477;51.414;10.362;2023-03-01T01:29:29;-0.10;67.20
18694;DHT22;9477;51.414;10.362;2023-03-01T01:31:32;-0.20;67.30
18694;DHT22;9477;51.414;10.362;2023-03-01T01:33:36;-0.20;67.80
18694;DHT22;9477;51.414;10.362;2023-03-01T01:35:39;-0.20;67.80
18694;DHT22;9477;51.414;10.362;2023-03-01T01:37:44;-0.10;67.60
18694;DHT22;9477;51.414;10.362;2023-03-01T01:39:47;0.00;67.50
18694;DHT22;9477;51.414;10.362;2023-03-01T01:41:50;0.00;67.40
18694;DHT22;9477;51.414;10.362;2023-03-01T01:44:12;-0.10;67.50
18694;DHT22;9477;51.414;10.362;2023-03-01T01:46:21;-0.20;67.60
18694;DHT22;9477;51.414;10.362;2023-03-01T01:48:32;-0.30;68.00
18694;DHT22;9477;51.414;10.362;2023-03-01T01:50:41;-0.40;68.10
18694;DHT22;9477;51.414;10.362;2023-03-01T01:52:48;-0.30;68.20
18694;DHT22;9477;51.414;10.362;2023-03-01T01:54:56;-0.20;68.00
18694;DHT22;9477;51.414;10.362;2023-03-01T01:57:03;-0.20;67.40
18694;DHT22;9477;51.414;10.362;2023-03-01T01:59:08;-0.20;67.20
18694;DHT22;9477;51.414;10.362;2023-03-01T02:01:12;-0.30;67.30
18694;DHT22;9477;51.414;10.362;2023-03-01T02:03:18;-0.30;67.80
18694;DHT22;9477;51.414;10.362;2023-03-01T02:05:28;-0.20;67.90
18694;DHT22;9477;51.414;10.362;2023-03-01T02:07:36;-0.20;67.70
18694;DHT22;9477;51.414;10.362;2023-03-01T02:09:46;-0.30;68.10
18694;DHT22;9477;51.414;10.362;2023-03-01T02:11:51;-0.30;68.00
18694;DHT22;9477;51.414;10.362;2023-03-01T02:13:54;-0.30;68.10
18694;DHT22;9477;51.414;10.362;2023-03-01T02:15:57;-0.50;67.80
18694;DHT22;9477;51.414;10.362;2023-03-01T02:18:02;-0.50;68.70
18694;DHT22;9477;51.414;10.362;2023-03-01T02:20:14;-0.50;69.10
18694;DHT22;9477;51.414;10.362;2023-03-01T02:22:24;-0.60;69.10
18694;DHT22;9477;51.414;10.362;2023-03-01T02:24:34;-0.50;69.20
18694;DHT22;9477;51.414;10.362;2023-03-01T02:26:46;-0.50;69.20
18694;DHT22;9477;51.414;10.362;2023-03-01T02:28:51;-0.40;69.30
18694;DHT22;9477;51.414;10.362;2023-03-01T02:30:54;-0.30;68.90
18694;DHT22;9477;51.414;10.362;2023-03-01T02:33:11;-0.20;68.70
18694;DHT22;9477;51.414;10.362;2023-03-01T02:35:16;-0.20;68.50
18694;DHT22;9477;51.414;10.362;2023-03-01T02:37:21;-0.10;68.40
18694;DHT22;9477;51.414;10.362;2023-03-01T02:39:29;-0.10;68.20
18694;DHT22;9477;51.414;10.362;2023-03-01T02:41:36;0.00;68.00
18694;DHT22;9477;51.414;10.362;2023-03-01T02:43:39;0.00;67.80
18694;DHT22;9477;51.414;10.362;2023-03-01T02:45:48;-0.10;67.70
18694;DHT22;9477;51.414;10.362;2023-03-01T02:47:53;-0.20;67.80
18694;DHT22;9477;51.414;10.362;2023-03-01T02:49:56;-0.10;68.00
18694;DHT22;9477;51.414;10.362;2023-03-01T02:52:17;0.00;68.10
18694;DHT22;9477;51.414;10.362;2023-03-01T02:54:27;0.10;68.00
18694;DHT22;9477;51.414;10.362;2023-03-01T02:56:31;0.00;67.90
18694;DHT22;9477;51.414;10.362;2023-03-01T02:58:35;0.10;68.00
18694;DHT22;9477;51.414;10.362;2023-03-01T03:00:48;0.10;67.90
18694;DHT22;9477;51.414;10.362;2023-03-01T03:02:53;0.20;67.90
18694;DHT22;9477;51.414;10.362;2023-03-01T03:04:58;0.10;67.60
18694;DHT22;9477;51.414;10.362;2023-03-01T03:07:01;0.00;67.40
18694;DHT22;9477;51.414;10.362;2023-03-01T03:09:05;-0.10;67.40
18694;DHT22;9477;51.414;10.362;2023-03-01T03:11:09;0.00;67.60
18694;DHT22;9477;51.414;10.362;2023-03-01T03:13:13;0.00;67.50
18694;DHT22;9477;51.414;10.362;2023-03-01T03:15:17;0.00;67.40
18694;DHT22;9477;51.414;10.362;2023-03-01T03:17:21;-0.10;67.10
18694;DHT22;9477;51.414;10.362;2023-03-01T03:19:24;0.00;67.30
18694;DHT22;9477;51.414;10.362;2023-03-01T03:21:28;-0.20;67.80
18694;DHT22;9477;51.414;10.362;2023-03-01T03:23:31;-0.10;67.80
18694;DHT22;9477;51.414;10.362;2023-03-01T03:25:33;-0.10;67.70
18694;DHT22;9477;51.414;10.362;2023-03-01T03:27:40;-0.10;67.40
18694;DHT22;9477;51.414;10.362;2023-03-01T03:29:43;-0.20;67.50
18694;DHT22;9477;51.414;10.362;2023-03-01T03:31:46;-0.20;67.50
18694;DHT22;9477;51.414;10.362;2023-03-01T03:33:51;-0.20;67.60
18694;DHT22;9477;51.414;10.362;2023-03-01T03:35:54;-0.20;67.70
18694;DHT22;9477;51.414;10.362;2023-03-01T03:37:58;-0.10;67.70
18694;DHT22;9477;51.414;10.362;2023-03-01T03:40:09;-0.20;67.50
18694;DHT22;9477;51.414;10.362;2023-03-01T03:42:17;-0.20;67.50
18694;DHT22;9477;51.414;10.362;2023-03-01T03:44:20;-0.20;67.50
18694;DHT22;9477;51.414;10.362;2023-03-01T03:46:23;-0.20;67.40
18694;DHT22;9477;51.414;10.362;2023-03-01T03:48:27;-0.20;67.20
18694;DHT22;9477;51.414;10.362;2023-03-01T03:50:32;-0.20;67.10
18694;DHT22;9477;51.414;10.362;2023-03-01T03:52:35;-0.20;67.30
18694;DHT22;9477;51.414;10.362;2023-03-01T03:54:38;-0.20;67.10
18694;DHT22;9477;51.414;10.362;2023-03-01T03:56:41;-0.20;67.10
18694;DHT22;9477;51.414;10.362;2023-03-01T03:58:45;-0.20;67.10
18694;DHT22;9477;51.414;10.362;2023-03-01T04:00:51;-0.20;67.20
18694;DHT22;9477;51.414;10.362;2023-03-01T04:02:54;-0.20;67.30
18694;DHT22;9477;51.414;10.362;2023-03-01T04:04:58;-0.40;67.50
18694;DHT22;9477;51.414;10.362;2023-03-01T04:07:02;-0.50;67.70
18694;DHT22;9477;51.414;10.362;2023-03-01T04:09:05;-0.50;67.90
18694;DHT22;9477;51.414;10.362;2023-03-01T04:11:08;-0.40;68.10
18694;DHT22;9477;51.414;10.362;2023-03-01T04:13:30;-0.40;68.00
18694;DHT22;9477;51.414;10.362;2023-03-01T04:15:33;-0.40;67.80
18694;DHT22;9477;51.414;10.362;2023-03-01T04:17:37;-0.50;67.60
18694;DHT22;9477;51.414;10.362;2023-03-01T04:19:41;-0.50;67.50
18694;DHT22;9477;51.414;10.362;2023-03-01T04:21:45;-0.50;67.50
18694;DHT22;9477;51.414;10.362;2023-03-01T04:23:50;-0.50;67.50
18694;DHT22;9477;51.414;10.362;2023-03-01T04:25:55;-0.50;67.60
18694;DHT22;9477;51.414;10.362;2023-03-01T04:27:58;-0.50;67.60
18694;DHT22;9477;51.414;10.362;2023-03-01T04:30:02;-0.60;67.50
18694;DHT22;9477;51.414;10.362;2023-03-01T04:32:06;-0.60;67.70
18694;DHT22;9477;51.414;10.362;2023-03-01T04:34:10;-0.70;67.80
18694;DHT22;9477;51.414;10.362;2023-03-01T04:36:14;-0.80;68.00
18694;DHT22;9477;51.414;10.362;2023-03-01T04:38:18;-0.90;68.60
18694;DHT22;9477;51.414;10.362;2023-03-01T04:40:22;-0.80;68.50
18694;DHT22;9477;51.414;10.362;2023-03-01T04:42:25;-0.90;68.40
18694;DHT22;9477;51.414;10.362;2023-03-01T04:44:28;-0.90;68.70
18694;DHT22;9477;51.414;10.362;2023-03-01T04:46:33;-0.80;68.90
18694;DHT22;9477;51.414;10.362;2023-03-01T04:48:37;-0.70;68.70
18694;DHT22;9477;51.414;10.362;2023-03-01T04:50:40;-0.80;69.30
18694;DHT22;9477;51.414;10.362;2023-03-01T04:52:43;-0.70;68.60
18694;DHT22;9477;51.414;10.362;2023-03-01T04:54:47;-0.70;68.30
18694;DHT22;9477;51.414;10.362;2023-03-01T04:56:51;-0.70;68.10
18694;DHT22;9477;51.414;10.362;2023-03-01T04:58:54;-0.70;68.00
18694;DHT22;9477;51.414;10.362;2023-03-01T05:00:57;-0.70;67.80
18694;DHT22;9477;51.414;10.362;2023-03-01T05:03:00;-0.70;67.70
18694;DHT22;9477;51.414;10.362;2023-03-01T05:05:04;-0.70;67.90
18694;DHT22;9477;51.414;10.362;2023-03-01T05:07:07;-0.70;67.70
18694;DHT22;9477;51.414;10.362;2023-03-01T05:09:10;-0.70;67.50
18694;DHT22;9477;51.414;10.362;2023-03-01T05:11:14;-0.70;67.40
18694;DHT22;9477;51.414;10.362;2023-03-01T05:13:18;-0.90;67.30
18694;DHT22;9477;51.414;10.362;2023-03-01T05:15:23;-0.80;67.60
18694;DHT22;9477;51.414;10.362;2023-03-01T05:17:27;-0.80;67.40
18694;DHT22;9477;51.414;10.362;2023-03-01T05:19:30;-0.90;67.40
18694;DHT22;9477;51.414;10.362;2023-03-01T05:21:34;-0.90;67.50
18694;DHT22;9477;51.414;10.362;2023-03-01T05:23:59;-1.00;67.60
18694;DHT22;9477;51.414;10.362;2023-03-01T05:26:04;-1.10;68.30
18694;DHT22;9477;51.414;10.362;2023-03-01T05:28:12;-1.20;68.60
18694;DHT22;9477;51.414;10.362;2023-03-01T05:30:17;-1.10;68.70
18694;DHT22;9477;51.414;10.362;2023-03-01T05:32:20;-1.10;68.90
18694;DHT22;9477;51.414;10.362;2023-03-01T05:34:24;-1.00;68.90
18694;DHT22;9477;51.414;10.362;2023-03-01T05:36:27;-0.90;68.90
18694;DHT22;9477;51.414;10.362;2023-03-01T05:38:30;-0.90;68.50
18694;DHT22;9477;51.414;10.362;2023-03-01T05:40:34;-0.80;68.30
18694;DHT22;9477;51.414;10.362;2023-03-01T05:42:37;-0.90;68.20
18694;DHT22;9477;51.414;10.362;2023-03-01T05:44:40;-0.90;68.50
18694;DHT22;9477;51.414;10.362;2023-03-01T05:46:45;-0.80;68.50
18694;DHT22;9477;51.414;10.362;2023-03-01T05:48:47;-0.70;68.40
18694;DHT22;9477;51.414;10.362;2023-03-01T05:50:50;-0.70;68.00
18694;DHT22;9477;51.414;10.362;2023-03-01T05:52:57;-0.80;67.60
18694;DHT22;9477;51.414;10.362;2023-03-01T05:55:00;-0.90;68.00
18694;DHT22;9477;51.414;10.362;2023-03-01T05:57:03;-0.90;68.10
18694;DHT22;9477;51.414;10.362;2023-03-01T05:59:06;-0.90;68.40
18694;DHT22;9477;51.414;10.362;2023-03-01T06:01:11;-1.00;68.30
18694;DHT22;9477;51.414;10.362;2023-03-01T06:03:17;-1.10;68.60
18694;DHT22;9477;51.414;10.362;2023-03-01T06:05:21;-1.00;68.80
18694;DHT22;9477;51.414;10.362;2023-03-01T06:07:24;-0.90;68.70
18694;DHT22;9477;51.414;10.362;2023-03-01T06:09:27;-0.80;68.40
18694;DHT22;9477;51.414;10.362;2023-03-01T06:11:30;-0.80;68.10
18694;DHT22;9477;51.414;10.362;2023-03-01T06:13:33;-0.90;68.00
18694;DHT22;9477;51.414;10.362;2023-03-01T06:15:35;-0.80;68.20
18694;DHT22;9477;51.414;10.362;2023-03-01T06:17:40;-0.80;68.40
18694;DHT22;9477;51.414;10.362;2023-03-01T06:19:46;-0.80;68.30
18694;DHT22;9477;51.414;10.362;2023-03-01T06:21:49;-0.90;68.60
18694;DHT22;9477;51.414;10.362;2023-03-01T06:23:52;-0.80;68.90
18694;DHT22;9477;51.414;10.362;2023-03-01T06:25:54;-0.70;68.80
18694;DHT22;9477;51.414;10.362;2023-03-01T06:27:57;-0.70;68.50
18694;DHT22;9477;51.414;10.362;2023-03-01T06:30:00;-0.70;68.40
18694;DHT22;9477;51.414;10.362;2023-03-01T06:32:03;-0.70;68.40
18694;DHT22;9477;51.414;10.362;2023-03-01T06:34:06;-0.60;68.50
18694;DHT22;9477;51.414;10.362;2023-03-01T06:36:10;-0.40;68.70
18694;DHT22;9477;51.414;10.362;2023-03-01T06:38:13;-0.40;68.50
18694;DHT22;9477;51.414;10.362;2023-03-01T06:40:19;-0.40;68.30
18694;DHT22;9477;51.414;10.362;2023-03-01T06:42:22;-0.30;68.50
18694;DHT22;9477;51.414;10.362;2023-03-01T06:44:26;-0.20;68.50
18694;DHT22;9477;51.414;10.362;2023-03-01T06:46:30;-0.10;68.30
18694;DHT22;9477;51.414;10.362;2023-03-01T06:48:33;-0.10;68.40
18694;DHT22;9477;51.414;10.362;2023-03-01T06:50:37;0.00;68.40
18694;DHT22;9477;51.414;10.362;2023-03-01T06:52:41;0.10;68.30
18694;DHT22;9477;51.414;10.362;2023-03-01T06:54:46;0.20;68.20
18694;DHT22;9477;51.414;10.362;2023-03-01T06:56:49;0.20;68.20
18694;DHT22;9477;51.414;10.362;2023-03-01T06:58:52;0.30;68.60
18694;DHT22;9477;51.414;10.362;2023-03-01T07:00:55;0.50;68.80
18694;DHT22;9477;51.414;10.362;2023-03-01T07:02:59;0.60;68.80
18694;DHT22;9477;51.414;10.362;2023-03-01T07:05:04;0.80;69.10
18694;DHT22;9477;51.414;10.362;2023-03-01T07:07:07;1.00;69.20
18694;DHT22;9477;51.414;10.362;2023-03-01T07:09:11;1.20;69.00
18694;DHT22;9477;51.414;10.362;2023-03-01T07:11:14;1.30;68.70
18694;DHT22;9477;51.414;10.362;2023-03-01T07:13:17;1.40;68.60
18694;DHT22;9477;51.414;10.362;2023-03-01T07:15:20;1.50;68.50
18694;DHT22;9477;51.414;10.362;2023-03-01T07:17:23;1.60;68.50
18694;DHT22;9477;51.414;10.362;2023-03-01T07:19:26;1.60;68.60
18694;DHT22;9477;51.414;10.362;2023-03-01T07:21:29;1.80;68.70
18694;DHT22;9477;51.414;10.362;2023-03-01T07:23:32;1.90;68.70
18694;DHT22;9477;51.414;10.362;2023-03-01T07:25:36;2.00;68.70
18694;DHT22;9477;51.414;10.362;2023-03-01T07:27:39;2.20;68.80
18694;DHT22;9477;51.414;10.362;2023-03-01T07:29:42;2.10;69.20
18694;DHT22;9477;51.414;10.362;2023-03-01T07:31:45;2.20;68.80
18694;DHT22;9477;51.414;10.362;2023-03-01T07:33:48;2.30;68.70
18694;DHT22;9477;51.414;10.362;2023-03-01T07:35:56;2.40;68.60
18694;DHT22;9477;51.414;10.362;2023-03-01T07:38:00;2.50;68.60
18694;DHT22;9477;51.414;10.362;2023-03-01T07:40:03;2.60;68.60
18694;DHT22;9477;51.414;10.362;2023-03-01T07:42:08;2.60;68.60
18694;DHT22;9477;51.414;10.362;2023-03-01T07:44:11;2.70;68.70
18694;DHT22;9477;51.414;10.362;2023-03-01T07:46:14;2.90;68.80
18694;DHT22;9477;51.414;10.362;2023-03-01T07:48:17;3.00;68.90
18694;DHT22;9477;51.414;10.362;2023-03-01T07:50:20;3.10;68.80
18694;DHT22;9477;51.414;10.362;2023-03-01T07:52:23;3.00;68.60
18694;DHT22;9477;51.414;10.362;2023-03-01T07:54:26;3.10;68.80
18694;DHT22;9477;51.414;10.362;2023-03-01T07:56:30;3.10;68.70
18694;DHT22;9477;51.414;10.362;2023-03-01T07:58:36;3.20;69.00
18694;DHT22;9477;51.414;10.362;2023-03-01T08:00:39;3.30;69.10
18694;DHT22;9477;51.414;10.362;2023-03-01T08:02:42;3.40;69.10
18694;DHT22;9477;51.414;10.362;2023-03-01T08:04:45;3.40;68.90
18694;DHT22;9477;51.414;10.362;2023-03-01T08:06:48;3.50;68.90
18694;DHT22;9477;51.414;10.362;2023-03-01T08:08:51;3.50;68.90
18694;DHT22;9477;51.414;10.362;2023-03-01T08:10:56;3.70;69.30
18694;DHT22;9477;51.414;10.362;2023-03-01T08:12:59;3.80;69.30
18694;DHT22;9477;51.414;10.362;2023-03-01T08:15:04;3.90;69.10
18694;DHT22;9477;51.414;10.362;2023-03-01T08:17:08;3.90;69.00
18694;DHT22;9477;51.414;10.362;2023-03-01T08:19:12;3.90;69.80
18694;DHT22;9477;51.414;10.362;2023-03-01T08:21:16;4.10;69.40
18694;DHT22;9477;51.414;10.362;2023-03-01T08:23:19;4.10;69.20
18694;DHT22;9477;51.414;10.362;2023-03-01T08:25:22;4.20;69.50
18694;DHT22;9477;51.414;10.362;2023-03-01T08:27:25;4.30;69.60
18694;DHT22;9477;51.414;10.362;2023-03-01T08:29:30;4.40;69.60
18694;DHT22;9477;51.414;10.362;2023-03-01T08:31:37;4.50;69.60
18694;DHT22;9477;51.414;10.362;2023-03-01T08:33:40;4.50;69.70
18694;DHT22;9477;51.414;10.362;2023-03-01T08:35:43;4.60;69.60
18694;DHT22;9477;51.414;10.362;2023-03-01T08:37:46;4.70;69.70
18694;DHT22;9477;51.414;10.362;2023-03-01T08:39:49;4.80;69.90
18694;DHT22;9477;51.414;10.362;2023-03-01T08:41:52;5.00;69.90
18694;DHT22;9477;51.414;10.362;2023-03-01T08:43:55;5.10;69.80
18694;DHT22;9477;51.414;10.362;2023-03-01T08:46:01;5.20;69.60
18694;DHT22;9477;51.414;10.362;2023-03-01T08:48:05;5.30;69.50
18694;DHT22;9477;51.414;10.362;2023-03-01T08:50:09;5.40;69.30
18694;DHT22;9477;51.414;10.362;2023-03-01T08:52:12;5.50;69.00
18694;DHT22;9477;51.414;10.362;2023-03-01T08:54:16;5.40;68.60
18694;DHT22;9477;51.414;10.362;2023-03-01T08:56:19;5.50;68.70
18694;DHT22;9477;51.414;10.362;2023-03-01T08:58:22;5.50;68.40
18694;DHT22;9477;51.414;10.362;2023-03-01T09:00:25;5.60;68.50
18694;DHT22;9477;51.414;10.362;2023-03-01T09:02:28;5.70;68.30
18694;DHT22;9477;51.414;10.362;2023-03-01T09:04:32;5.70;67.90
18694;DHT22;9477;51.414;10.362;2023-03-01T09:06:36;5.80;68.10
18694;DHT22;9477;51.414;10.362;2023-03-01T09:08:40;5.90;67.80
18694;DHT22;9477;51.414;10.362;2023-03-01T09:10:44;6.00;67.50
18694;DHT22;9477;51.414;10.362;2023-03-01T09:12:46;6.10;67.50
18694;DHT22;9477;51.414;10.362;2023-03-01T09:14:50;6.10;66.30
18694;DHT22;9477;51.414;10.362;2023-03-01T09:16:53;6.10;66.30
18694;DHT22;9477;51.414;10.362;2023-03-01T09:18:56;6.10;66.40
18694;DHT22;9477;51.414;10.362;2023-03-01T09:21:03;6.10;65.70
18694;DHT22;9477;51.414;10.362;2023-03-01T09:23:08;6.20;66.20
18694;DHT22;9477;51.414;10.362;2023-03-01T09:25:11;6.20;65.80
18694;DHT22;9477;51.414;10.362;2023-03-01T09:27:14;6.30;66.10
18694;DHT22;9477;51.414;10.362;2023-03-01T09:29:20;6.40;65.90
18694;DHT22;9477;51.414;10.362;2023-03-01T09:31:24;6.50;65.60
18694;DHT22;9477;51.414;10.362;2023-03-01T09:33:28;6.40;64.70
18694;DHT22;9477;51.414;10.362;2023-03-01T09:35:31;6.50;65.30
18694;DHT22;9477;51.414;10.362;2023-03-01T09:37:36;6.50;64.40
18694;DHT22;9477;51.414;10.362;2023-03-01T09:39:40;6.70;64.90
18694;DHT22;9477;51.414;10.362;2023-03-01T09:41:46;6.70;65.20
18694;DHT22;9477;51.414;10.362;2023-03-01T09:43:51;6.70;64.70
18694;DHT22;9477;51.414;10.362;2023-03-01T09:46:00;6.70;64.10
18694;DHT22;9477;51.414;10.362;2023-03-01T09:48:12;6.80;64.60
18694;DHT22;9477;51.414;10.362;2023-03-01T09:50:17;6.80;64.50
18694;DHT22;9477;51.414;10.362;2023-03-01T09:52:25;7.00;64.90
18694;DHT22;9477;51.414;10.362;2023-03-01T09:54:32;7.20;65.10
18694;DHT22;9477;51.414;10.362;2023-03-01T09:56:40;7.10;63.70
18694;DHT22;9477;51.414;10.362;2023-03-01T09:58:49;7.10;63.10
18694;DHT22;9477;51.414;10.362;2023-03-01T10:00:56;7.20;63.60
18694;DHT22;9477;51.414;10.362;2023-03-01T10:03:10;7.20;63.40
18694;DHT22;9477;51.414;10.362;2023-03-01T10:05:26;7.20;63.70
18694;DHT22;9477;51.414;10.362;2023-03-01T10:07:38;7.30;63.80
18694;DHT22;9477;51.414;10.362;2023-03-01T10:09:44;7.40;64.20
18694;DHT22;9477;51.414;10.362;2023-03-01T10:11:51;7.60;63.90
18694;DHT22;9477;51.414;10.362;2023-03-01T10:13:58;7.60;63.60
18694;DHT22;9477;51.414;10.362;2023-03-01T10:16:10;7.80;63.70
18694;DHT22;9477;51.414;10.362;2023-03-01T10:18:17;7.80;63.10
18694;DHT22;9477;51.414;10.362;2023-03-01T10:20:23;7.70;62.40
18694;DHT22;9477;51.414;10.362;2023-03-01T10:22:28;7.70;62.60
18694;DHT22;9477;51.414;10.362;2023-03-01T10:24:35;7.70;62.90
18694;DHT22;9477;51.414;10.362;2023-03-01T10:26:54;7.80;63.20
18694;DHT22;9477;51.414;10.362;2023-03-01T10:29:02;7.70;62.40
18694;DHT22;9477;51.414;10.362;2023-03-01T10:31:11;7.80;62.70
18694;DHT22;9477;51.414;10.362;2023-03-01T10:33:18;7.80;62.40
18694;DHT22;9477;51.414;10.362;2023-03-01T10:35:25;7.70;61.90
18694;DHT22;9477;51.414;10.362;2023-03-01T10:37:28;7.90;62.20
18694;DHT22;9477;51.414;10.362;2023-03-01T10:39:31;7.90;62.50
18694;DHT22;9477;51.414;10.362;2023-03-01T10:41:47;7.90;61.70
18694;DHT22;9477;51.414;10.362;2023-03-01T10:43:57;8.00;62.20
18694;DHT22;9477;51.414;10.362;2023-03-01T10:46:01;7.90;61.50
18694;DHT22;9477;51.414;10.362;2023-03-01T10:48:10;7.90;61.10
18694;DHT22;9477;51.414;10.362;2023-03-01T10:50:19;8.00;61.90
18694;DHT22;9477;51.414;10.362;2023-03-01T10:52:25;8.10;61.70
18694;DHT22;9477;51.414;10.362;2023-03-01T10:54:31;8.00;61.30
18694;DHT22;9477;51.414;10.362;2023-03-01T10:56:47;8.10;61.60
18694;DHT22;9477;51.414;10.362;2023-03-01T10:58:59;8.10;61.20
18694;DHT22;9477;51.414;10.362;2023-03-01T11:01:05;8.10;60.30
18694;DHT22;9477;51.414;10.362;2023-03-01T11:03:13;8.20;60.80
18694;DHT22;9477;51.414;10.362;2023-03-01T11:05:21;8.30;60.90
18694;DHT22;9477;51.414;10.362;2023-03-01T11:07:26;8.40;60.70
18694;DHT22;9477;51.414;10.362;2023-03-01T11:09:32;8.40;59.80
18694;DHT22;9477;51.414;10.362;2023-03-01T11:11:39;8.40;59.30
18694;DHT22;9477;51.414;10.362;2023-03-01T11:13:53;8.40;59.70
18694;DHT22;9477;51.414;10.362;2023-03-01T11:16:03;8.30;59.10
18694;DHT22;9477;51.414;10.362;2023-03-01T11:18:19;8.30;59.10
18694;DHT22;9477;51.414;10.362;2023-03-01T11:20:31;8.40;59.60
18694;DHT22;9477;51.414;10.362;2023-03-01T11:22:35;8.40;59.70
18694;DHT22;9477;51.414;10.362;2023-03-01T11:24:41;8.40;59.60
18694;DHT22;9477;51.414;10.362;2023-03-01T11:26:47;8.40;59.90
18694;DHT22;9477;51.414;10.362;2023-03-01T11:28:55;8.60;60.20
18694;DHT22;9477;51.414;10.362;2023-03-01T11:31:03;8.50;59.60
18694;DHT22;9477;51.414;10.362;2023-03-01T11:33:16;8.40;58.60
18694;DHT22;9477;51.414;10.362;2023-03-01T11:35:22;8.50;59.40
18694;DHT22;9477;51.414;10.362;2023-03-01T11:37:35;8.50;59.50
18694;DHT22;9477;51.414;10.362;2023-03-01T11:39:41;8.50;59.10
18694;DHT22;9477;51.414;10.362;2023-03-01T11:41:49;8.60;59.40
18694;DHT22;9477;51.414;10.362;2023-03-01T11:43:57;8.50;58.80
18694;DHT22;9477;51.414;10.362;2023-03-01T11:46:34;8.70;59.70
18694;DHT22;9477;51.414;10.362;2023-03-01T11:48:51;8.70;59.00
18694;DHT22;9477;51.414;10.362;2023-03-01T11:50:58;8.70;58.70
18694;DHT22;9477;51.414;10.362;2023-03-01T11:53:21;8.70;59.50
18694;DHT22;9477;51.414;10.362;2023-03-01T11:55:36;8.90;59.80
18694;DHT22;9477;51.414;10.362;2023-03-01T11:58:02;9.00;59.80
18694;DHT22;9477;51.414;10.362;2023-03-01T12:00:19;9.00;59.70
18694;DHT22;9477;51.414;10.362;2023-03-01T12:05:11;9.40;59.70
18694;DHT22;9477;51.414;10.362;2023-03-01T12:07:21;9.30;58.70
18694;DHT22;9477;51.414;10.362;2023-03-01T12:09:42;9.30;59.40
18694;DHT22;9477;51.414;10.362;2023-03-01T12:14:32;9.40;58.90
18694;DHT22;9477;51.414;10.362;2023-03-01T12:17:00;9.50;59.10
18694;DHT22;9477;51.414;10.362;2023-03-01T12:19:16;9.30;58.40
18694;DHT22;9477;51.414;10.362;2023-03-01T12:21:34;9.30;58.20
18694;DHT22;9477;51.414;10.362;2023-03-01T12:23:58;9.40;58.80
18694;DHT22;9477;51.414;10.362;2023-03-01T12:26:10;9.50;58.70
18694;DHT22;9477;51.414;10.362;2023-03-01T12:28:32;9.50;58.60
18694;DHT22;9477;51.414;10.362;2023-03-01T12:30:49;9.60;58.60
18694;DHT22;9477;51.414;10.362;2023-03-01T12:33:06;9.60;58.60
18694;DHT22;9477;51.414;10.362;2023-03-01T12:35:29;9.60;58.40
18694;DHT22;9477;51.414;10.362;2023-03-01T12:37:42;9.60;58.50
18694;DHT22;9477;51.414;10.362;2023-03-01T12:40:02;9.80;59.40
18694;DHT22;9477;51.414;10.362;2023-03-01T12:42:13;9.80;59.10
18694;DHT22;9477;51.414;10.362;2023-03-01T12:44:30;9.80;58.80
18694;DHT22;9477;51.414;10.362;2023-03-01T12:49:08;10.00;57.70
18694;DHT22;9477;51.414;10.362;2023-03-01T12:51:15;9.90;58.00
18694;DHT22;9477;51.414;10.362;2023-03-01T12:53:26;9.90;57.60
18694;DHT22;9477;51.414;10.362;2023-03-01T12:55:33;9.90;57.50
18694;DHT22;9477;51.414;10.362;2023-03-01T12:57:39;9.80;57.10
18694;DHT22;9477;51.414;10.362;2023-03-01T12:59:49;9.70;57.10
18694;DHT22;9477;51.414;10.362;2023-03-01T13:01:59;9.80;57.80
18694;DHT22;9477;51.414;10.362;2023-03-01T13:04:20;9.90;57.80
18694;DHT22;9477;51.414;10.362;2023-03-01T13:06:29;9.80;56.70
18694;DHT22;9477;51.414;10.362;2023-03-01T13:08:49;9.90;57.20
18694;DHT22;9477;51.414;10.362;2023-03-01T13:10:57;9.80;56.60
18694;DHT22;9477;51.414;10.362;2023-03-01T13:13:11;9.90;57.00
18694;DHT22;9477;51.414;10.362;2023-03-01T13:15:32;10.10;56.40
18694;DHT22;9477;51.414;10.362;2023-03-01T13:17:43;10.10;56.00
18694;DHT22;9477;51.414;10.362;2023-03-01T13:19:56;10.20;56.00
18694;DHT22;9477;51.414;10.362;2023-03-01T13:21:59;10.30;56.10
18694;DHT22;9477;51.414;10.362;2023-03-01T13:24:04;10.30;55.80
18694;DHT22;9477;51.414;10.362;2023-03-01T13:26:25;10.40;55.80
18694;DHT22;9477;51.414;10.362;2023-03-01T13:28:59;10.30;55.80
18694;DHT22;9477;51.414;10.362;2023-03-01T13:31:04;10.30;55.00
18694;DHT22;9477;51.414;10.362;2023-03-01T13:33:33;10.30;55.40